createdAt,value
2018-07-10T00:03:14.422Z,12.93
2018-07-10T00:07:01.158Z,12.90
2018-07-10T00:09:48.117Z,13.19
2018-07-10T00:12:16.483Z,13.01
2018-07-10T00:14:44.759Z,13.03
2018-07-10T00:17:13.081Z,13.09
2018-07-10T00:19:41.382Z,12.99
2018-07-10T00:22:09.801Z,13.11
2018-07-10T00:24:38.090Z,13.19
2018-07-10T00:27:07.389Z,13.19
2018-07-10T00:29:35.690Z,13.35
2018-07-10T00:32:03.937Z,13.55
2018-07-10T00:34:32.221Z,13.66
2018-07-10T00:37:00.503Z,13.76
2018-07-10T00:39:28.797Z,13.78
2018-07-10T00:41:57.060Z,13.65
2018-07-10T00:44:25.362Z,13.60
2018-07-10T00:46:53.653Z,13.64
2018-07-10T00:49:22.005Z,13.65
2018-07-10T00:51:50.316Z,13.49
2018-07-10T00:54:18.621Z,13.36
2018-07-10T00:56:46.924Z,13.28
2018-07-10T00:59:15.378Z,13.25
2018-07-10T01:01:44.209Z,13.17
2018-07-10T01:04:12.487Z,13.20
2018-07-10T01:06:40.855Z,13.13
2018-07-10T01:09:13.726Z,13.21
2018-07-10T01:11:42.618Z,13.28
2018-07-10T01:14:10.949Z,13.38
2018-07-10T01:16:39.938Z,13.36
2018-07-10T01:19:12.361Z,13.49
2018-07-10T01:21:41.261Z,13.53
2018-07-10T01:24:09.621Z,13.61
2018-07-10T01:26:42.153Z,13.69
2018-07-10T01:29:20.338Z,13.68
2018-07-10T01:31:50.192Z,13.75
2018-07-10T01:34:18.498Z,13.88
2018-07-10T01:36:46.789Z,13.88
2018-07-10T01:39:15.457Z,13.85
2018-07-10T01:41:44.302Z,13.85
2018-07-10T01:44:12.619Z,13.90
2018-07-10T01:46:41.009Z,13.83
2018-07-10T01:49:09.272Z,13.76
2018-07-10T01:51:38.500Z,13.77
2018-07-10T01:55:10.841Z,13.75
2018-07-10T01:57:39.449Z,13.78
2018-07-10T02:00:07.737Z,13.86
2018-07-10T02:02:36.041Z,13.77
2018-07-10T02:05:04.330Z,13.72
2018-07-10T02:07:32.661Z,13.70
2018-07-10T02:10:00.941Z,13.61
2018-07-10T02:12:29.256Z,13.61
2018-07-10T02:14:57.549Z,13.54
2018-07-10T02:17:25.978Z,13.42
2018-07-10T02:19:54.296Z,13.40
2018-07-10T02:22:22.602Z,13.35
2018-07-10T02:24:50.910Z,13.31
2018-07-10T02:27:19.201Z,13.12
2018-07-10T02:29:47.749Z,13.11
2018-07-10T02:32:16.027Z,13.12
2018-07-10T02:34:44.340Z,13.03
2018-07-10T02:37:12.649Z,12.98
2018-07-10T02:39:41.069Z,12.86
2018-07-10T02:42:09.352Z,12.92
2018-07-10T02:44:37.650Z,12.86
2018-07-10T02:47:05.957Z,12.98
2018-07-10T02:49:34.274Z,12.92
2018-07-10T02:52:05.689Z,12.98
2018-07-10T02:54:36.431Z,12.96
2018-07-10T02:57:07.829Z,13.05
2018-07-10T02:59:40.993Z,13.13
2018-07-10T03:02:22.489Z,13.09
2018-07-10T03:04:56.350Z,13.14
2018-07-10T03:07:25.681Z,13.17
2018-07-10T03:09:54.377Z,13.31
2018-07-10T03:12:22.659Z,13.36
2018-07-10T03:14:50.974Z,13.27
2018-07-10T03:17:21.556Z,13.33
2018-07-10T03:19:50.427Z,13.42
2018-07-10T03:22:19.445Z,13.40
2018-07-10T03:24:47.881Z,13.52
2018-07-10T03:27:16.193Z,13.50
2018-07-10T03:29:44.484Z,13.62
2018-07-10T03:32:12.801Z,13.51
2018-07-10T03:34:41.106Z,13.53
2018-07-10T03:37:09.420Z,13.52
2018-07-10T03:39:39.808Z,13.50
2018-07-10T03:42:09.771Z,13.59
2018-07-10T03:44:40.285Z,13.43
2018-07-10T03:47:11.500Z,13.60
2018-07-10T03:49:39.960Z,13.67
2018-07-10T03:52:08.273Z,13.71
2018-07-10T03:54:39.098Z,13.73
2018-07-10T03:57:07.405Z,13.77
2018-07-10T03:59:41.711Z,13.69
2018-07-10T04:02:10.025Z,13.79
2018-07-10T04:04:38.301Z,13.83
2018-07-10T04:07:06.633Z,14.05
2018-07-10T04:09:35.013Z,14.16
2018-07-10T04:12:03.333Z,14.26
2018-07-10T04:14:31.637Z,14.19
2018-07-10T04:16:59.945Z,14.00
2018-07-10T04:19:28.941Z,14.19
2018-07-10T04:21:58.377Z,14.37
2018-07-10T04:24:26.872Z,14.20
2018-07-10T04:27:33.421Z,14.28
2018-07-10T04:30:13.141Z,14.36
2018-07-10T04:32:42.184Z,14.30
2018-07-10T04:35:15.112Z,14.27
2018-07-10T04:37:47.281Z,14.36
2018-07-10T04:40:15.589Z,14.36
2018-07-10T04:42:48.705Z,14.36
2018-07-10T04:45:17.849Z,14.43
2018-07-10T04:47:50.925Z,14.47
2018-07-10T04:50:21.779Z,14.42
2018-07-10T04:52:54.034Z,14.26
2018-07-10T04:55:22.351Z,14.36
2018-07-10T04:58:00.611Z,14.37
2018-07-10T05:00:29.606Z,14.34
2018-07-10T05:02:58.757Z,14.35
2018-07-10T05:05:29.121Z,14.31
2018-07-10T05:07:57.464Z,14.31
2018-07-10T05:10:25.861Z,14.24
2018-07-10T05:12:54.249Z,14.41
2018-07-10T05:15:22.665Z,14.66
2018-07-10T05:17:51.857Z,14.63
2018-07-10T05:20:21.621Z,14.80
2018-07-10T05:22:49.901Z,14.90
2018-07-10T05:25:18.847Z,14.93
2018-07-10T05:27:47.186Z,14.99
2018-07-10T05:30:16.093Z,15.39
2018-07-10T05:32:44.425Z,15.39
2018-07-10T05:35:12.717Z,15.26
2018-07-10T05:37:41.226Z,15.36
2018-07-10T05:40:10.869Z,15.55
2018-07-10T05:42:48.757Z,15.52
2018-07-10T05:45:20.653Z,15.55
2018-07-10T05:47:54.019Z,15.61
2018-07-10T05:50:22.309Z,15.76
2018-07-10T05:52:50.870Z,15.84
2018-07-10T05:55:25.520Z,15.88
2018-07-10T05:57:54.365Z,15.93
2018-07-10T06:00:22.773Z,16.03
2018-07-10T06:02:51.334Z,15.94
2018-07-10T06:05:20.010Z,15.78
2018-07-10T06:07:50.248Z,15.84
2018-07-10T06:10:18.609Z,15.94
2018-07-10T06:12:47.392Z,15.85
2018-07-10T06:15:16.256Z,15.85
2018-07-10T06:17:44.481Z,15.88
2018-07-10T06:20:12.760Z,15.85
2018-07-10T06:22:41.430Z,15.95
2018-07-10T06:25:09.674Z,15.94
2018-07-10T06:27:46.445Z,15.90
2018-07-10T06:30:14.943Z,16.00
2018-07-10T06:32:52.078Z,16.41
2018-07-10T06:35:30.741Z,16.74
2018-07-10T06:37:59.645Z,16.84
2018-07-10T06:40:28.797Z,17.29
2018-07-10T06:43:05.965Z,17.30
2018-07-10T06:45:34.271Z,17.77
2018-07-10T06:48:03.346Z,17.90
2018-07-10T06:50:34.553Z,17.68
2018-07-10T06:53:03.781Z,17.52
2018-07-10T06:55:40.208Z,17.76
2018-07-10T06:58:08.529Z,17.03
2018-07-10T07:00:36.845Z,16.65
2018-07-10T07:03:05.157Z,17.07
2018-07-10T07:05:33.614Z,16.99
2018-07-10T07:08:01.922Z,17.08
2018-07-10T07:10:32.197Z,16.48
2018-07-10T07:13:00.477Z,17.06
2018-07-10T07:15:28.765Z,17.65
2018-07-10T07:17:57.125Z,17.90
2018-07-10T07:20:25.421Z,17.91
2018-07-10T07:22:53.737Z,17.40
2018-07-10T07:25:22.055Z,18.01
2018-07-10T07:27:50.341Z,18.17
2018-07-10T07:30:18.621Z,18.72
2018-07-10T07:32:47.178Z,18.71
2018-07-10T07:35:15.456Z,19.05
2018-07-10T07:37:43.732Z,19.11
2018-07-10T07:40:12.493Z,18.80
2018-07-10T07:42:41.573Z,19.12
2018-07-10T07:45:10.374Z,19.84
2018-07-10T07:47:38.677Z,19.66
2018-07-10T07:50:07.178Z,19.29
2018-07-10T07:52:35.489Z,19.49
2018-07-10T07:55:04.371Z,19.27
2018-07-10T07:57:32.853Z,18.80
2018-07-10T08:00:01.231Z,18.99
2018-07-10T08:02:29.801Z,19.59
2018-07-10T08:04:58.273Z,19.07
2018-07-10T08:07:27.181Z,19.34
2018-07-10T08:09:56.589Z,19.08
2018-07-10T08:12:26.007Z,19.55
2018-07-10T08:14:54.781Z,19.95
2018-07-10T08:17:23.798Z,19.44
2018-07-10T08:19:52.430Z,19.29
2018-07-10T08:22:20.765Z,19.85
2018-07-10T08:24:49.037Z,19.95
2018-07-10T08:27:17.869Z,19.64
2018-07-10T08:29:46.168Z,19.25
2018-07-10T08:32:14.696Z,19.83
2018-07-10T08:34:42.961Z,20.10
2018-07-10T08:37:11.318Z,20.54
2018-07-10T08:39:39.580Z,20.22
2018-07-10T08:42:07.881Z,20.36
2018-07-10T08:44:36.257Z,20.35
2018-07-10T08:47:05.049Z,20.14
2018-07-10T08:49:36.117Z,20.82
2018-07-10T08:52:05.561Z,20.86
2018-07-10T08:54:33.923Z,20.45
2018-07-10T08:57:02.928Z,20.97
2018-07-10T08:59:31.667Z,20.87
2018-07-10T09:01:59.958Z,19.97
2018-07-10T09:04:28.274Z,20.02
2018-07-10T09:06:56.549Z,19.56
2018-07-10T09:09:24.888Z,19.11
2018-07-10T09:11:53.182Z,19.35
2018-07-10T09:14:22.559Z,19.14
2018-07-10T09:16:50.873Z,19.26
2018-07-10T09:19:26.453Z,19.05
2018-07-10T09:22:12.650Z,18.55
2018-07-10T09:24:47.705Z,18.53
2018-07-10T09:27:18.829Z,18.34
2018-07-10T09:29:47.750Z,18.40
2018-07-10T09:32:22.581Z,18.50
2018-07-10T09:34:50.885Z,18.90
2018-07-10T09:37:24.501Z,19.00
2018-07-10T09:39:57.665Z,19.33
2018-07-10T09:42:25.937Z,19.61
2018-07-10T09:44:54.262Z,19.94
2018-07-10T09:47:22.561Z,19.79
2018-07-10T09:49:50.904Z,19.30
2018-07-10T09:52:19.177Z,19.27
2018-07-10T09:54:47.564Z,19.61
2018-07-10T09:57:15.765Z,20.52
2018-07-10T09:59:44.049Z,20.68
2018-07-10T10:02:17.710Z,20.15
2018-07-10T10:04:46.072Z,19.61
2018-07-10T10:07:14.382Z,19.85
2018-07-10T10:09:42.681Z,19.61
2018-07-10T10:12:11.019Z,19.96
2018-07-10T10:14:39.289Z,20.48
2018-07-10T10:17:07.608Z,20.51
2018-07-10T10:19:35.908Z,20.06
2018-07-10T10:23:28.637Z,19.85
2018-07-10T10:25:56.977Z,20.07
2018-07-10T10:28:26.085Z,20.33
2018-07-10T10:30:54.373Z,20.33
2018-07-10T10:33:22.745Z,19.84
2018-07-10T10:35:51.163Z,20.26
2018-07-10T10:38:19.417Z,20.25
2018-07-10T10:40:49.357Z,19.86
2018-07-10T10:43:17.629Z,20.39
2018-07-10T10:45:46.074Z,20.74
2018-07-10T10:48:15.194Z,20.86
2018-07-10T10:50:47.896Z,21.19
2018-07-10T10:53:16.553Z,20.91
2018-07-10T10:55:44.833Z,20.70
2018-07-10T10:58:13.161Z,20.79
2018-07-10T11:00:41.730Z,20.65
2018-07-10T11:03:10.373Z,20.66
2018-07-10T11:05:40.958Z,19.98
2018-07-10T11:08:09.364Z,20.31
2018-07-10T11:10:37.637Z,20.37
2018-07-10T11:13:06.281Z,20.38
2018-07-10T11:15:39.865Z,20.21
2018-07-10T11:18:10.757Z,20.48
2018-07-10T11:21:04.998Z,20.66
2018-07-10T11:23:41.029Z,20.94
2018-07-10T11:26:18.877Z,21.01
2018-07-10T11:28:47.157Z,21.12
2018-07-10T11:31:15.425Z,21.45
2018-07-10T11:33:43.830Z,21.35
2018-07-10T11:36:12.178Z,21.84
2018-07-10T11:38:40.481Z,21.80
2018-07-10T11:41:08.865Z,22.40
2018-07-10T11:43:37.178Z,21.85
2018-07-10T11:46:05.513Z,21.86
2018-07-10T11:48:33.813Z,22.31
2018-07-10T11:51:02.138Z,22.31
2018-07-10T11:53:30.444Z,21.95
2018-07-10T11:55:58.829Z,21.09
2018-07-10T11:58:27.121Z,21.72
2018-07-10T12:00:55.405Z,21.28
2018-07-10T12:03:23.650Z,21.82
2018-07-10T12:05:52.869Z,21.94
2018-07-10T12:08:21.129Z,21.09
2018-07-10T12:11:20.642Z,21.54
2018-07-10T12:13:48.973Z,21.15
2018-07-10T12:16:17.409Z,21.17
2018-07-10T12:18:45.665Z,20.96
2018-07-10T12:21:17.241Z,21.19
2018-07-10T12:23:46.645Z,21.41
2018-07-10T12:26:14.945Z,21.25
2018-07-10T12:28:43.221Z,20.87
2018-07-10T12:31:11.526Z,20.93
2018-07-10T12:33:39.789Z,20.75
2018-07-10T12:36:09.113Z,21.58
2018-07-10T12:38:37.437Z,21.99
2018-07-10T12:41:05.765Z,21.82
2018-07-10T12:43:34.038Z,21.95
2018-07-10T12:46:02.345Z,22.50
2018-07-10T12:48:30.626Z,23.26
2018-07-10T12:50:58.930Z,22.78
2018-07-10T12:53:27.329Z,22.99
2018-07-10T12:55:55.693Z,23.30
2018-07-10T12:58:24.637Z,22.93
2018-07-10T13:00:52.961Z,23.19
2018-07-10T13:03:22.546Z,23.16
2018-07-10T13:05:54.384Z,22.70
2018-07-10T13:08:22.844Z,23.67
2018-07-10T13:10:51.124Z,24.15
2018-07-10T13:13:19.781Z,22.45
2018-07-10T13:15:48.066Z,23.41
2018-07-10T13:18:19.872Z,23.17
2018-07-10T13:20:48.124Z,22.54
2018-07-10T13:23:16.420Z,21.88
2018-07-10T13:25:44.756Z,21.98
2018-07-10T13:28:13.068Z,22.49
2018-07-10T13:30:41.681Z,22.69
2018-07-10T13:33:10.078Z,22.80
2018-07-10T13:35:38.377Z,22.66
2018-07-10T13:38:06.826Z,22.45
2018-07-10T13:40:36.382Z,22.37
2018-07-10T13:43:05.738Z,22.53
2018-07-10T13:45:33.990Z,22.41
2018-07-10T13:48:02.285Z,22.52
2018-07-10T13:50:32.768Z,23.19
2018-07-10T13:53:02.509Z,24.74
2018-07-10T13:55:32.713Z,26.38
2018-07-10T13:58:13.729Z,28.19
2018-07-10T14:00:44.637Z,29.33
2018-07-10T14:03:13.177Z,27.80
2018-07-10T14:05:42.710Z,25.67
2018-07-10T14:08:12.094Z,27.20
2018-07-10T14:10:40.401Z,31.52
2018-07-10T14:13:08.677Z,28.44
2018-07-10T14:15:37.045Z,31.36
2018-07-10T14:18:05.917Z,35.25
2018-07-10T14:20:40.988Z,34.59
2018-07-10T14:23:09.252Z,35.26
2018-07-10T14:25:37.543Z,37.01
2018-07-10T14:28:06.108Z,38.58
2018-07-10T14:30:38.077Z,37.82
2018-07-10T14:33:06.532Z,37.61
2018-07-10T14:35:35.265Z,36.98
2018-07-10T14:38:05.485Z,38.65
2018-07-10T14:40:36.650Z,36.24
2018-07-10T14:43:05.077Z,36.24
2018-07-10T14:45:33.914Z,37.53
2018-07-10T14:48:03.866Z,38.86
2018-07-10T14:50:32.826Z,35.98
2018-07-10T14:53:01.183Z,36.73
2018-07-10T14:55:29.472Z,37.32
2018-07-10T14:57:57.885Z,36.63
2018-07-10T15:00:26.166Z,35.21
2018-07-10T15:02:54.926Z,34.82
2018-07-10T15:05:23.326Z,37.42
2018-07-10T15:07:51.821Z,37.41
2018-07-10T15:10:20.150Z,34.81
2018-07-10T15:12:48.564Z,38.15
2018-07-10T15:15:19.011Z,35.16
2018-07-10T15:17:52.585Z,35.11
2018-07-10T15:20:20.909Z,32.45
2018-07-10T15:22:49.246Z,34.07
2018-07-10T15:25:17.510Z,35.55
2018-07-10T15:27:46.300Z,35.67
2018-07-10T15:30:14.609Z,35.12
2018-07-10T15:32:42.919Z,33.69
2018-07-10T15:35:11.242Z,33.80
2018-07-10T15:37:39.599Z,34.30
2018-07-10T15:40:07.919Z,36.37
2018-07-10T15:42:36.287Z,35.05
2018-07-10T15:45:05.600Z,34.90
2018-07-10T15:47:33.938Z,32.31
2018-07-10T15:50:03.249Z,33.30
2018-07-10T15:52:31.663Z,32.92
2018-07-10T15:55:01.970Z,35.01
2018-07-10T15:57:30.373Z,34.33
2018-07-10T15:59:58.723Z,36.42
2018-07-10T16:02:27.049Z,35.46
2018-07-10T16:04:56.441Z,32.83
2018-07-10T16:07:24.749Z,34.89
2018-07-10T16:09:53.065Z,36.46
2018-07-10T16:12:23.313Z,36.08
2018-07-10T16:14:52.649Z,32.84
2018-07-10T16:17:23.621Z,30.08
2018-07-10T16:19:57.222Z,27.91
2018-07-10T16:22:27.641Z,26.68
2018-07-10T16:25:01.268Z,26.58
2018-07-10T16:27:35.773Z,29.97
2018-07-10T16:30:05.314Z,31.04
2018-07-10T16:32:35.757Z,30.18
2018-07-10T16:35:04.217Z,29.17
2018-07-10T16:37:32.561Z,29.50
2018-07-10T16:40:00.902Z,28.27
2018-07-10T16:42:34.650Z,27.05
2018-07-10T16:45:04.943Z,25.53
2018-07-10T16:48:38.857Z,24.73
2018-07-10T16:51:16.793Z,24.29
2018-07-10T16:53:45.135Z,23.60
2018-07-10T16:56:13.537Z,23.78
2018-07-10T16:58:42.354Z,25.04
2018-07-10T17:01:10.829Z,25.21
2018-07-10T17:03:39.380Z,25.61
2018-07-10T17:06:07.700Z,24.11
2018-07-10T17:08:35.997Z,24.34
2018-07-10T17:11:04.457Z,23.43
2018-07-10T17:13:32.773Z,25.04
2018-07-10T17:16:01.113Z,28.75
2018-07-10T17:18:30.499Z,30.58
2018-07-10T17:20:59.890Z,31.23
2018-07-10T17:23:28.190Z,30.60
2018-07-10T17:25:56.658Z,29.10
2018-07-10T17:28:24.949Z,28.86
2018-07-10T17:30:53.260Z,27.00
2018-07-10T17:33:21.842Z,26.63
2018-07-10T17:35:50.216Z,24.83
2018-07-10T17:38:18.553Z,24.11
2018-07-10T17:40:46.869Z,23.62
2018-07-10T17:43:16.850Z,24.10
2018-07-10T17:45:45.150Z,23.33
2018-07-10T17:48:13.564Z,22.98
2018-07-10T17:50:41.857Z,21.68
2018-07-10T17:53:10.324Z,22.14
2018-07-10T17:55:38.621Z,21.78
2018-07-10T17:58:07.225Z,22.19
2018-07-10T18:00:35.910Z,21.99
2018-07-10T18:03:04.240Z,20.91
2018-07-10T18:05:33.805Z,21.03
2018-07-10T18:08:02.139Z,20.94
2018-07-10T18:10:30.464Z,20.70
2018-07-10T18:12:58.781Z,21.08
2018-07-10T18:15:27.053Z,21.37
2018-07-10T18:17:55.389Z,21.09
2018-07-10T18:20:23.679Z,21.39
2018-07-10T18:22:52.028Z,21.03
2018-07-10T18:25:20.266Z,21.22
2018-07-10T18:27:48.549Z,21.31
2018-07-10T18:30:16.909Z,21.01
2018-07-10T18:32:45.141Z,21.02
2018-07-10T18:35:13.614Z,20.93
2018-07-10T18:37:42.685Z,20.91
2018-07-10T18:40:11.021Z,20.86
2018-07-10T18:42:39.417Z,20.70
2018-07-10T18:45:07.717Z,20.73
2018-07-10T18:47:36.039Z,20.64
2018-07-10T18:50:04.643Z,20.38
2018-07-10T18:52:32.929Z,20.17
2018-07-10T18:55:01.875Z,20.07
2018-07-10T18:58:40.385Z,20.18
2018-07-10T19:01:21.996Z,19.89
2018-07-10T19:03:50.467Z,19.67
2018-07-10T19:06:23.033Z,19.70
2018-07-10T19:08:51.610Z,19.56
2018-07-10T19:11:26.357Z,19.71
2018-07-10T19:13:55.709Z,19.56
2018-07-10T19:16:24.778Z,19.60
2018-07-10T19:18:53.826Z,19.31
2018-07-10T19:21:28.253Z,19.29
2018-07-10T19:23:59.951Z,19.07
2018-07-10T19:26:29.641Z,18.91
2018-07-10T19:29:16.301Z,18.92
2018-07-10T19:31:45.621Z,19.02
2018-07-10T19:34:13.936Z,18.75
2018-07-10T19:36:42.565Z,18.92
2018-07-10T19:39:10.845Z,19.04
2018-07-10T19:41:39.208Z,19.01
2018-07-10T19:44:07.501Z,18.88
2018-07-10T19:46:36.486Z,18.74
2018-07-10T19:49:05.301Z,18.84
2018-07-10T19:51:33.930Z,18.78
2018-07-10T19:54:08.377Z,18.81
2018-07-10T19:56:37.881Z,18.64
2018-07-10T19:59:07.313Z,18.43
2018-07-10T20:01:59.264Z,18.53
2018-07-10T20:05:03.669Z,18.54
2018-07-10T20:07:39.261Z,18.53
2018-07-10T20:10:42.122Z,18.58
2018-07-10T20:13:16.271Z,18.47
2018-07-10T20:15:52.361Z,18.61
2018-07-10T20:18:44.413Z,18.66
2018-07-10T20:21:19.093Z,18.56
2018-07-10T20:23:57.857Z,18.63
2018-07-10T20:26:41.885Z,18.54
2018-07-10T20:29:19.113Z,18.63
2018-07-10T20:32:26.438Z,18.60
2018-07-10T20:35:02.621Z,18.56
2018-07-10T20:37:31.539Z,18.55
2018-07-10T20:40:00.994Z,18.47
2018-07-10T20:42:46.126Z,18.41
2018-07-10T20:45:14.517Z,18.45
2018-07-10T20:47:50.303Z,18.29
2018-07-10T20:50:31.341Z,18.17
2018-07-10T20:53:25.666Z,18.30
2018-07-10T20:55:58.953Z,18.31
2018-07-10T20:58:33.173Z,18.43
2018-07-10T21:01:06.537Z,18.25
2018-07-10T21:03:56.044Z,18.28
2018-07-10T21:07:02.209Z,18.43
2018-07-10T21:10:09.012Z,18.51
2018-07-10T21:12:48.295Z,18.40
2018-07-10T21:15:22.461Z,18.48
2018-07-10T21:18:00.530Z,18.40
2018-07-10T21:20:40.090Z,18.31
2018-07-10T21:23:21.879Z,18.33
2018-07-10T21:28:02.661Z,18.13
2018-07-10T21:30:38.521Z,17.76
2018-07-10T21:33:20.782Z,17.74
2018-07-10T21:35:58.516Z,17.64
2018-07-10T21:38:44.550Z,17.64
2018-07-10T21:41:26.796Z,17.81
2018-07-10T21:47:14.415Z,17.74
2018-07-10T21:49:45.672Z,17.74
2018-07-10T21:52:14.505Z,17.72
2018-07-10T21:54:43.949Z,17.85
2018-07-10T21:57:14.637Z,17.81
2018-07-10T21:59:51.157Z,17.65
2018-07-10T22:02:19.490Z,17.72
2018-07-10T22:04:48.317Z,17.52
2018-07-10T22:07:16.885Z,17.69
2018-07-10T22:09:45.332Z,17.67
2018-07-10T22:12:17.480Z,17.66
2018-07-10T22:14:46.099Z,17.71
2018-07-10T22:17:16.341Z,17.44
2018-07-10T22:19:45.411Z,17.50
2018-07-10T22:22:17.562Z,17.40
2018-07-10T22:24:45.901Z,17.47
2018-07-10T22:27:14.277Z,17.57
2018-07-10T22:29:47.876Z,17.50
2018-07-10T22:32:21.596Z,17.52
2018-07-10T22:34:49.912Z,17.57
2018-07-10T22:40:11.101Z,17.55
2018-07-10T22:42:43.082Z,17.39
2018-07-10T22:45:11.442Z,17.36
2018-07-10T22:47:40.904Z,17.46
2018-07-10T22:50:16.408Z,17.41
2018-07-10T22:52:58.675Z,17.62
2018-07-10T22:55:31.041Z,17.63
2018-07-10T22:58:02.829Z,17.71
2018-07-10T23:00:34.046Z,17.83
2018-07-10T23:03:13.241Z,17.83
2018-07-10T23:05:42.693Z,17.79
2018-07-10T23:08:11.001Z,17.84
2018-07-10T23:10:39.309Z,17.77
2018-07-10T23:13:07.658Z,17.75
2018-07-10T23:15:39.821Z,17.65
2018-07-10T23:18:09.221Z,17.81
2018-07-10T23:20:37.708Z,17.92
2018-07-10T23:23:06.118Z,17.98
2018-07-10T23:25:34.447Z,18.01
2018-07-10T23:28:04.662Z,18.13
2018-07-10T23:30:36.763Z,18.14
2018-07-10T23:33:07.625Z,18.15
2018-07-10T23:35:36.781Z,18.19
2018-07-10T23:38:10.615Z,18.11
2018-07-10T23:40:41.442Z,18.23
2018-07-10T23:43:10.018Z,18.27
2018-07-10T23:45:38.333Z,18.02
2018-07-10T23:48:07.786Z,18.11
2018-07-10T23:50:37.281Z,17.98
2018-07-10T23:54:14.221Z,18.04
2018-07-10T23:56:42.573Z,18.14
2018-07-10T23:59:10.955Z,18.21
